sensor_id;sensor_type;location;lat;lon;timestamp;P1;durP1;ratioP1;P2;durP2;ratioP2
59233;SDS011;60776;51.702;7.462;2023-05-27T00:02:03;8.00;;;6.55;;
59233;SDS011;60776;51.702;7.462;2023-05-27T00:04:29;7.63;;;6.68;;
59233;SDS011;60776;51.702;7.462;2023-05-27T00:06:55;7.22;;;6.32;;
59233;SDS011;60776;51.702;7.462;2023-05-27T00:09:21;7.90;;;6.43;;
59233;SDS011;60776;51.702;7.462;2023-05-27T00:11:47;7.28;;;6.47;;
59233;SDS011;60776;51.702;7.462;2023-05-27T00:14:12;8.00;;;6.88;;
59233;SDS011;60776;51.702;7.462;2023-05-27T00:16:39;7.65;;;6.78;;
59233;SDS011;60776;51.702;7.462;2023-05-27T00:19:05;7.28;;;6.13;;
59233;SDS011;60776;51.702;7.462;2023-05-27T00:21:39;7.93;;;7.03;;
59233;SDS011;60776;51.702;7.462;2023-05-27T00:24:05;7.18;;;6.47;;
59233;SDS011;60776;51.702;7.462;2023-05-27T00:26:31;7.22;;;6.53;;
59233;SDS011;60776;51.702;7.462;2023-05-27T00:29:00;7.30;;;6.60;;
59233;SDS011;60776;51.702;7.462;2023-05-27T00:31:28;7.00;;;6.07;;
59233;SDS011;60776;51.702;7.462;2023-05-27T00:33:54;8.35;;;6.97;;
59233;SDS011;60776;51.702;7.462;2023-05-27T00:36:20;7.10;;;6.30;;
59233;SDS011;60776;51.702;7.462;2023-05-27T00:38:46;7.07;;;6.38;;
59233;SDS011;60776;51.702;7.462;2023-05-27T00:41:14;8.57;;;7.28;;
59233;SDS011;60776;51.702;7.462;2023-05-27T00:43:43;7.40;;;6.70;;
59233;SDS011;60776;51.702;7.462;2023-05-27T00:46:11;7.28;;;6.40;;
59233;SDS011;60776;51.702;7.462;2023-05-27T00:48:37;7.78;;;6.88;;
59233;SDS011;60776;51.702;7.462;2023-05-27T00:51:03;7.50;;;6.70;;
59233;SDS011;60776;51.702;7.462;2023-05-27T00:53:30;7.38;;;6.68;;
59233;SDS011;60776;51.702;7.462;2023-05-27T00:56:10;7.68;;;6.88;;
59233;SDS011;60776;51.702;7.462;2023-05-27T00:58:37;7.20;;;6.55;;
59233;SDS011;60776;51.702;7.462;2023-05-27T01:01:06;8.20;;;7.40;;
59233;SDS011;60776;51.702;7.462;2023-05-27T01:03:32;7.47;;;6.78;;
59233;SDS011;60776;51.702;7.462;2023-05-27T01:06:23;8.05;;;7.25;;
59233;SDS011;60776;51.702;7.462;2023-05-27T01:09:02;8.15;;;6.90;;
59233;SDS011;60776;51.702;7.462;2023-05-27T01:11:49;7.38;;;6.55;;
59233;SDS011;60776;51.702;7.462;2023-05-27T01:14:21;7.05;;;6.35;;
59233;SDS011;60776;51.702;7.462;2023-05-27T01:16:50;8.10;;;6.50;;
59233;SDS011;60776;51.702;7.462;2023-05-27T01:19:33;8.10;;;7.05;;
59233;SDS011;60776;51.702;7.462;2023-05-27T01:22:02;6.25;;;5.65;;
59233;SDS011;60776;51.702;7.462;2023-05-27T01:24:50;7.43;;;6.70;;
59233;SDS011;60776;51.702;7.462;2023-05-27T01:27:15;7.68;;;6.60;;
59233;SDS011;60776;51.702;7.462;2023-05-27T01:29:41;7.50;;;6.30;;
59233;SDS011;60776;51.702;7.462;2023-05-27T01:32:09;8.45;;;6.60;;
59233;SDS011;60776;51.702;7.462;2023-05-27T01:35:29;7.00;;;6.30;;
59233;SDS011;60776;51.702;7.462;2023-05-27T01:37:53;6.43;;;5.82;;
59233;SDS011;60776;51.702;7.462;2023-05-27T01:40:21;6.70;;;6.00;;
59233;SDS011;60776;51.702;7.462;2023-05-27T01:42:47;7.40;;;6.63;;
59233;SDS011;60776;51.702;7.462;2023-05-27T01:45:13;7.25;;;6.55;;
59233;SDS011;60776;51.702;7.462;2023-05-27T01:47:39;7.15;;;6.45;;
59233;SDS011;60776;51.702;7.462;2023-05-27T01:50:07;6.72;;;6.05;;
59233;SDS011;60776;51.702;7.462;2023-05-27T01:52:33;6.88;;;6.18;;
59233;SDS011;60776;51.702;7.462;2023-05-27T01:54:59;7.25;;;6.55;;
59233;SDS011;60776;51.702;7.462;2023-05-27T01:57:25;7.10;;;6.47;;
59233;SDS011;60776;51.702;7.462;2023-05-27T01:59:51;7.25;;;6.18;;
59233;SDS011;60776;51.702;7.462;2023-05-27T02:02:17;7.25;;;6.50;;
59233;SDS011;60776;51.702;7.462;2023-05-27T02:04:43;6.50;;;5.90;;
59233;SDS011;60776;51.702;7.462;2023-05-27T02:07:08;7.13;;;6.47;;
59233;SDS011;60776;51.702;7.462;2023-05-27T02:09:34;7.35;;;6.63;;
59233;SDS011;60776;51.702;7.462;2023-05-27T02:12:05;7.07;;;6.38;;
59233;SDS011;60776;51.702;7.462;2023-05-27T02:14:32;6.55;;;5.95;;
59233;SDS011;60776;51.702;7.462;2023-05-27T02:16:57;7.57;;;6.88;;
59233;SDS011;60776;51.702;7.462;2023-05-27T02:19:23;7.13;;;6.43;;
59233;SDS011;60776;51.702;7.462;2023-05-27T02:21:50;6.25;;;5.65;;
59233;SDS011;60776;51.702;7.462;2023-05-27T02:24:18;7.32;;;6.63;;
59233;SDS011;60776;51.702;7.462;2023-05-27T02:26:44;7.53;;;6.78;;
59233;SDS011;60776;51.702;7.462;2023-05-27T02:29:10;6.65;;;6.05;;
59233;SDS011;60776;51.702;7.462;2023-05-27T02:31:35;6.97;;;6.22;;
59233;SDS011;60776;51.702;7.462;2023-05-27T02:34:04;6.90;;;6.15;;
59233;SDS011;60776;51.702;7.462;2023-05-27T02:36:30;6.93;;;6.13;;
59233;SDS011;60776;51.702;7.462;2023-05-27T02:38:56;7.22;;;6.10;;
59233;SDS011;60776;51.702;7.462;2023-05-27T02:41:22;7.22;;;6.32;;
59233;SDS011;60776;51.702;7.462;2023-05-27T02:43:51;6.82;;;5.65;;
59233;SDS011;60776;51.702;7.462;2023-05-27T02:46:19;6.75;;;6.07;;
59233;SDS011;60776;51.702;7.462;2023-05-27T02:48:46;6.95;;;6.10;;
59233;SDS011;60776;51.702;7.462;2023-05-27T02:51:12;6.68;;;6.00;;
59233;SDS011;60776;51.702;7.462;2023-05-27T02:53:37;6.90;;;6.22;;
59233;SDS011;60776;51.702;7.462;2023-05-27T02:56:03;7.00;;;6.30;;
59233;SDS011;60776;51.702;7.462;2023-05-27T02:58:29;6.60;;;6.00;;
59233;SDS011;60776;51.702;7.462;2023-05-27T03:00:55;7.18;;;6.38;;
59233;SDS011;60776;51.702;7.462;2023-05-27T03:03:21;6.72;;;6.13;;
59233;SDS011;60776;51.702;7.462;2023-05-27T03:05:50;6.93;;;6.10;;
59233;SDS011;60776;51.702;7.462;2023-05-27T03:08:16;6.57;;;5.97;;
59233;SDS011;60776;51.702;7.462;2023-05-27T03:10:41;6.70;;;6.10;;
59233;SDS011;60776;51.702;7.462;2023-05-27T03:13:07;6.57;;;5.93;;
59233;SDS011;60776;51.702;7.462;2023-05-27T03:15:33;6.57;;;5.97;;
59233;SDS011;60776;51.702;7.462;2023-05-27T03:18:08;6.85;;;6.15;;
59233;SDS011;60776;51.702;7.462;2023-05-27T03:20:34;6.70;;;5.90;;
59233;SDS011;60776;51.702;7.462;2023-05-27T03:23:00;6.93;;;5.63;;
59233;SDS011;60776;51.702;7.462;2023-05-27T03:25:28;6.18;;;5.57;;
59233;SDS011;60776;51.702;7.462;2023-05-27T03:27:54;6.10;;;5.50;;
59233;SDS011;60776;51.702;7.462;2023-05-27T03:30:19;5.80;;;5.30;;
59233;SDS011;60776;51.702;7.462;2023-05-27T03:32:48;6.30;;;5.70;;
59233;SDS011;60776;51.702;7.462;2023-05-27T03:35:17;6.35;;;5.75;;
59233;SDS011;60776;51.702;7.462;2023-05-27T03:37:52;5.90;;;5.30;;
59233;SDS011;60776;51.702;7.462;2023-05-27T03:40:18;5.95;;;5.45;;
59233;SDS011;60776;51.702;7.462;2023-05-27T03:42:43;6.82;;;5.80;;
59233;SDS011;60776;51.702;7.462;2023-05-27T03:45:09;5.88;;;5.38;;
59233;SDS011;60776;51.702;7.462;2023-05-27T03:47:35;6.05;;;5.45;;
59233;SDS011;60776;51.702;7.462;2023-05-27T03:50:01;6.50;;;5.90;;
59233;SDS011;60776;51.702;7.462;2023-05-27T03:52:30;6.55;;;5.90;;
59233;SDS011;60776;51.702;7.462;2023-05-27T03:54:55;6.60;;;5.90;;
59233;SDS011;60776;51.702;7.462;2023-05-27T03:57:21;6.00;;;5.40;;
59233;SDS011;60776;51.702;7.462;2023-05-27T03:59:47;6.05;;;5.45;;
59233;SDS011;60776;51.702;7.462;2023-05-27T04:02:15;5.72;;;5.22;;
59233;SDS011;60776;51.702;7.462;2023-05-27T04:04:41;6.28;;;5.68;;
59233;SDS011;60776;51.702;7.462;2023-05-27T04:07:07;6.43;;;5.82;;
59233;SDS011;60776;51.702;7.462;2023-05-27T04:09:33;6.00;;;5.25;;
59233;SDS011;60776;51.702;7.462;2023-05-27T04:11:58;6.22;;;5.63;;
59233;SDS011;60776;51.702;7.462;2023-05-27T04:14:24;5.82;;;5.28;;
59233;SDS011;60776;51.702;7.462;2023-05-27T04:16:50;6.22;;;5.63;;
59233;SDS011;60776;51.702;7.462;2023-05-27T04:19:16;6.03;;;5.43;;
59233;SDS011;60776;51.702;7.462;2023-05-27T04:21:42;5.72;;;5.22;;
59233;SDS011;60776;51.702;7.462;2023-05-27T04:24:08;6.13;;;5.53;;
59233;SDS011;60776;51.702;7.462;2023-05-27T04:26:33;6.07;;;5.47;;
59233;SDS011;60776;51.702;7.462;2023-05-27T04:28:59;5.68;;;5.18;;
59233;SDS011;60776;51.702;7.462;2023-05-27T04:31:25;5.88;;;5.38;;
59233;SDS011;60776;51.702;7.462;2023-05-27T04:33:53;5.88;;;5.28;;
59233;SDS011;60776;51.702;7.462;2023-05-27T04:36:22;5.95;;;5.35;;
59233;SDS011;60776;51.702;7.462;2023-05-27T04:38:57;6.10;;;5.50;;
59233;SDS011;60776;51.702;7.462;2023-05-27T04:41:24;5.65;;;5.15;;
59233;SDS011;60776;51.702;7.462;2023-05-27T04:43:53;6.10;;;5.50;;
59233;SDS011;60776;51.702;7.462;2023-05-27T04:46:20;5.80;;;5.18;;
59233;SDS011;60776;51.702;7.462;2023-05-27T04:48:46;6.50;;;5.82;;
59233;SDS011;60776;51.702;7.462;2023-05-27T04:51:12;6.10;;;5.50;;
59233;SDS011;60776;51.702;7.462;2023-05-27T04:53:41;6.25;;;4.95;;
59233;SDS011;60776;51.702;7.462;2023-05-27T04:56:06;5.43;;;4.93;;
59233;SDS011;60776;51.702;7.462;2023-05-27T04:58:39;5.50;;;5.00;;
59233;SDS011;60776;51.702;7.462;2023-05-27T05:01:07;5.80;;;5.30;;
59233;SDS011;60776;51.702;7.462;2023-05-27T05:03:41;5.68;;;5.03;;
59233;SDS011;60776;51.702;7.462;2023-05-27T05:06:49;5.47;;;4.97;;
59233;SDS011;60776;51.702;7.462;2023-05-27T05:09:15;5.35;;;4.88;;
59233;SDS011;60776;51.702;7.462;2023-05-27T05:11:41;5.47;;;4.97;;
59233;SDS011;60776;51.702;7.462;2023-05-27T05:14:07;5.43;;;4.90;;
59233;SDS011;60776;51.702;7.462;2023-05-27T05:16:32;5.07;;;4.68;;
59233;SDS011;60776;51.702;7.462;2023-05-27T05:19:01;5.40;;;4.90;;
59233;SDS011;60776;51.702;7.462;2023-05-27T05:21:27;5.60;;;5.10;;
59233;SDS011;60776;51.702;7.462;2023-05-27T05:23:53;5.20;;;4.70;;
59233;SDS011;60776;51.702;7.462;2023-05-27T05:26:19;5.88;;;5.28;;
59233;SDS011;60776;51.702;7.462;2023-05-27T05:28:45;6.22;;;5.57;;
59233;SDS011;60776;51.702;7.462;2023-05-27T05:31:10;5.20;;;4.80;;
59233;SDS011;60776;51.702;7.462;2023-05-27T05:33:39;4.88;;;4.47;;
59233;SDS011;60776;51.702;7.462;2023-05-27T05:36:05;5.50;;;5.00;;
59233;SDS011;60776;51.702;7.462;2023-05-27T05:38:32;4.65;;;4.15;;
59233;SDS011;60776;51.702;7.462;2023-05-27T05:40:59;4.97;;;4.47;;
59233;SDS011;60776;51.702;7.462;2023-05-27T05:43:25;5.03;;;4.53;;
59233;SDS011;60776;51.702;7.462;2023-05-27T05:45:51;4.82;;;4.38;;
59233;SDS011;60776;51.702;7.462;2023-05-27T05:48:19;5.43;;;4.90;;
59233;SDS011;60776;51.702;7.462;2023-05-27T05:50:45;4.63;;;4.22;;
59233;SDS011;60776;51.702;7.462;2023-05-27T05:53:11;5.00;;;4.60;;
59233;SDS011;60776;51.702;7.462;2023-05-27T05:55:37;5.00;;;4.50;;
59233;SDS011;60776;51.702;7.462;2023-05-27T05:58:03;4.68;;;4.28;;
59233;SDS011;60776;51.702;7.462;2023-05-27T06:00:31;4.93;;;4.53;;
59233;SDS011;60776;51.702;7.462;2023-05-27T06:02:57;5.45;;;4.93;;
59233;SDS011;60776;51.702;7.462;2023-05-27T06:05:23;5.72;;;4.90;;
59233;SDS011;60776;51.702;7.462;2023-05-27T06:07:51;5.00;;;4.50;;
59233;SDS011;60776;51.702;7.462;2023-05-27T06:10:17;5.72;;;5.22;;
59233;SDS011;60776;51.702;7.462;2023-05-27T06:12:43;5.00;;;4.60;;
59233;SDS011;60776;51.702;7.462;2023-05-27T06:15:08;5.18;;;4.68;;
59233;SDS011;60776;51.702;7.462;2023-05-27T06:17:34;5.10;;;4.60;;
59233;SDS011;60776;51.702;7.462;2023-05-27T06:20:00;5.45;;;4.95;;
59233;SDS011;60776;51.702;7.462;2023-05-27T06:22:26;4.88;;;4.47;;
59233;SDS011;60776;51.702;7.462;2023-05-27T06:24:52;5.20;;;4.80;;
59233;SDS011;60776;51.702;7.462;2023-05-27T06:27:17;4.85;;;4.38;;
59233;SDS011;60776;51.702;7.462;2023-05-27T06:29:43;5.07;;;4.65;;
59233;SDS011;60776;51.702;7.462;2023-05-27T06:32:11;5.20;;;4.70;;
59233;SDS011;60776;51.702;7.462;2023-05-27T06:34:36;5.65;;;5.05;;
59233;SDS011;60776;51.702;7.462;2023-05-27T06:37:05;5.18;;;4.68;;
59233;SDS011;60776;51.702;7.462;2023-05-27T06:39:31;5.22;;;4.70;;
59233;SDS011;60776;51.702;7.462;2023-05-27T06:41:56;4.65;;;4.25;;
59233;SDS011;60776;51.702;7.462;2023-05-27T06:44:25;5.28;;;4.78;;
59233;SDS011;60776;51.702;7.462;2023-05-27T06:46:53;4.68;;;4.25;;
59233;SDS011;60776;51.702;7.462;2023-05-27T06:49:19;5.05;;;4.60;;
59233;SDS011;60776;51.702;7.462;2023-05-27T06:51:45;5.07;;;4.63;;
59233;SDS011;60776;51.702;7.462;2023-05-27T06:54:11;4.95;;;4.53;;
59233;SDS011;60776;51.702;7.462;2023-05-27T06:56:37;4.78;;;4.38;;
59233;SDS011;60776;51.702;7.462;2023-05-27T06:59:03;5.05;;;4.55;;
59233;SDS011;60776;51.702;7.462;2023-05-27T07:01:29;5.05;;;4.55;;
59233;SDS011;60776;51.702;7.462;2023-05-27T07:03:56;4.45;;;4.05;;
59233;SDS011;60776;51.702;7.462;2023-05-27T07:06:22;4.63;;;4.22;;
59233;SDS011;60776;51.702;7.462;2023-05-27T07:08:48;4.70;;;4.30;;
59233;SDS011;60776;51.702;7.462;2023-05-27T07:11:13;5.05;;;4.55;;
59233;SDS011;60776;51.702;7.462;2023-05-27T07:13:39;4.88;;;4.47;;
59233;SDS011;60776;51.702;7.462;2023-05-27T07:16:08;4.72;;;4.30;;
59233;SDS011;60776;51.702;7.462;2023-05-27T07:18:37;4.60;;;4.15;;
59233;SDS011;60776;51.702;7.462;2023-05-27T07:21:02;4.63;;;4.22;;
59233;SDS011;60776;51.702;7.462;2023-05-27T07:23:28;4.75;;;4.30;;
59233;SDS011;60776;51.702;7.462;2023-05-27T07:25:54;5.22;;;4.47;;
59233;SDS011;60776;51.702;7.462;2023-05-27T07:28:20;5.10;;;4.28;;
59233;SDS011;60776;51.702;7.462;2023-05-27T07:30:45;4.65;;;4.25;;
59233;SDS011;60776;51.702;7.462;2023-05-27T07:33:11;4.90;;;4.38;;
59233;SDS011;60776;51.702;7.462;2023-05-27T07:35:38;4.45;;;4.05;;
59233;SDS011;60776;51.702;7.462;2023-05-27T07:38:06;4.57;;;4.18;;
59233;SDS011;60776;51.702;7.462;2023-05-27T07:40:31;4.50;;;4.10;;
59233;SDS011;60776;51.702;7.462;2023-05-27T07:42:57;4.70;;;4.25;;
59233;SDS011;60776;51.702;7.462;2023-05-27T07:45:23;4.18;;;3.78;;
59233;SDS011;60776;51.702;7.462;2023-05-27T07:47:49;4.35;;;3.95;;
59233;SDS011;60776;51.702;7.462;2023-05-27T07:50:14;5.45;;;4.88;;
59233;SDS011;60776;51.702;7.462;2023-05-27T07:52:43;4.50;;;4.10;;
59233;SDS011;60776;51.702;7.462;2023-05-27T07:55:09;4.57;;;4.13;;
59233;SDS011;60776;51.702;7.462;2023-05-27T07:57:37;4.30;;;3.90;;
59233;SDS011;60776;51.702;7.462;2023-05-27T08:00:03;4.80;;;4.40;;
59233;SDS011;60776;51.702;7.462;2023-05-27T08:02:32;4.75;;;4.22;;
59233;SDS011;60776;51.702;7.462;2023-05-27T08:04:58;4.43;;;4.03;;
59233;SDS011;60776;51.702;7.462;2023-05-27T08:07:24;4.45;;;4.05;;
59233;SDS011;60776;51.702;7.462;2023-05-27T08:09:50;4.43;;;4.03;;
59233;SDS011;60776;51.702;7.462;2023-05-27T08:12:17;4.40;;;4.00;;
59233;SDS011;60776;51.702;7.462;2023-05-27T08:14:42;4.15;;;3.67;;
59233;SDS011;60776;51.702;7.462;2023-05-27T08:17:11;4.50;;;4.10;;
59233;SDS011;60776;51.702;7.462;2023-05-27T08:19:36;4.35;;;3.75;;
59233;SDS011;60776;51.702;7.462;2023-05-27T08:22:05;3.97;;;3.67;;
59233;SDS011;60776;51.702;7.462;2023-05-27T08:24:34;3.90;;;3.50;;
59233;SDS011;60776;51.702;7.462;2023-05-27T08:27:00;4.70;;;3.85;;
59233;SDS011;60776;51.702;7.462;2023-05-27T08:29:27;4.30;;;3.70;;
59233;SDS011;60776;51.702;7.462;2023-05-27T08:31:56;4.10;;;3.70;;
59233;SDS011;60776;51.702;7.462;2023-05-27T08:34:22;4.75;;;3.75;;
59233;SDS011;60776;51.702;7.462;2023-05-27T08:36:48;4.32;;;3.78;;
59233;SDS011;60776;51.702;7.462;2023-05-27T08:39:14;4.30;;;3.90;;
59233;SDS011;60776;51.702;7.462;2023-05-27T08:41:39;3.83;;;3.45;;
59233;SDS011;60776;51.702;7.462;2023-05-27T08:44:06;3.90;;;3.50;;
59233;SDS011;60776;51.702;7.462;2023-05-27T08:46:32;4.00;;;3.35;;
59233;SDS011;60776;51.702;7.462;2023-05-27T08:48:59;4.15;;;3.78;;
59233;SDS011;60776;51.702;7.462;2023-05-27T08:51:25;4.32;;;3.60;;
59233;SDS011;60776;51.702;7.462;2023-05-27T08:53:52;4.75;;;3.95;;
59233;SDS011;60776;51.702;7.462;2023-05-27T08:56:21;3.78;;;3.38;;
59233;SDS011;60776;51.702;7.462;2023-05-27T08:58:49;4.43;;;3.22;;
59233;SDS011;60776;51.702;7.462;2023-05-27T09:01:19;4.05;;;3.65;;
59233;SDS011;60776;51.702;7.462;2023-05-27T09:03:47;4.18;;;3.70;;
59233;SDS011;60776;51.702;7.462;2023-05-27T09:06:13;3.85;;;3.53;;
59233;SDS011;60776;51.702;7.462;2023-05-27T09:08:39;4.30;;;3.30;;
59233;SDS011;60776;51.702;7.462;2023-05-27T09:11:05;3.63;;;3.33;;
59233;SDS011;60776;51.702;7.462;2023-05-27T09:13:33;3.90;;;3.53;;
59233;SDS011;60776;51.702;7.462;2023-05-27T09:15:59;4.10;;;3.65;;
59233;SDS011;60776;51.702;7.462;2023-05-27T09:18:32;3.78;;;3.15;;
59233;SDS011;60776;51.702;7.462;2023-05-27T09:21:00;3.13;;;2.83;;
59233;SDS011;60776;51.702;7.462;2023-05-27T09:23:26;4.30;;;3.58;;
59233;SDS011;60776;51.702;7.462;2023-05-27T09:25:52;3.22;;;2.92;;
59233;SDS011;60776;51.702;7.462;2023-05-27T09:28:25;3.60;;;3.20;;
59233;SDS011;60776;51.702;7.462;2023-05-27T09:30:52;4.13;;;3.42;;
59233;SDS011;60776;51.702;7.462;2023-05-27T09:33:25;3.63;;;3.33;;
59233;SDS011;60776;51.702;7.462;2023-05-27T09:35:51;3.72;;;3.40;;
59233;SDS011;60776;51.702;7.462;2023-05-27T09:38:17;3.88;;;3.15;;
59233;SDS011;60776;51.702;7.462;2023-05-27T09:40:46;3.25;;;2.95;;
59233;SDS011;60776;51.702;7.462;2023-05-27T09:43:13;4.43;;;3.28;;
59233;SDS011;60776;51.702;7.462;2023-05-27T09:45:43;4.30;;;3.00;;
59233;SDS011;60776;51.702;7.462;2023-05-27T09:48:10;3.88;;;3.13;;
59233;SDS011;60776;51.702;7.462;2023-05-27T09:50:38;3.70;;;3.40;;
59233;SDS011;60776;51.702;7.462;2023-05-27T09:53:05;3.20;;;2.90;;
59233;SDS011;60776;51.702;7.462;2023-05-27T09:55:32;3.60;;;3.30;;
59233;SDS011;60776;51.702;7.462;2023-05-27T09:57:58;3.70;;;2.95;;
59233;SDS011;60776;51.702;7.462;2023-05-27T10:00:25;3.85;;;3.13;;
59233;SDS011;60776;51.702;7.462;2023-05-27T10:02:52;3.55;;;3.20;;
59233;SDS011;60776;51.702;7.462;2023-05-27T10:05:18;4.32;;;3.08;;
59233;SDS011;60776;51.702;7.462;2023-05-27T10:07:50;3.28;;;2.90;;
59233;SDS011;60776;51.702;7.462;2023-05-27T10:10:16;3.25;;;2.95;;
59233;SDS011;60776;51.702;7.462;2023-05-27T10:12:43;4.35;;;3.20;;
59233;SDS011;60776;51.702;7.462;2023-05-27T10:15:20;3.30;;;3.00;;
59233;SDS011;60776;51.702;7.462;2023-05-27T10:17:52;3.63;;;3.00;;
59233;SDS011;60776;51.702;7.462;2023-05-27T10:20:27;3.28;;;2.97;;
59233;SDS011;60776;51.702;7.462;2023-05-27T10:23:08;3.55;;;3.25;;
59233;SDS011;60776;51.702;7.462;2023-05-27T10:25:53;3.22;;;2.90;;
59233;SDS011;60776;51.702;7.462;2023-05-27T10:28:24;3.22;;;2.90;;
59233;SDS011;60776;51.702;7.462;2023-05-27T10:33:40;3.28;;;2.95;;
59233;SDS011;60776;51.702;7.462;2023-05-27T10:36:12;3.58;;;3.05;;
59233;SDS011;60776;51.702;7.462;2023-05-27T10:38:40;3.40;;;2.80;;
59233;SDS011;60776;51.702;7.462;2023-05-27T10:41:06;3.30;;;3.00;;
59233;SDS011;60776;51.702;7.462;2023-05-27T10:43:33;3.65;;;3.20;;
59233;SDS011;60776;51.702;7.462;2023-05-27T10:46:09;3.10;;;2.80;;
59233;SDS011;60776;51.702;7.462;2023-05-27T10:48:37;3.13;;;2.78;;
59233;SDS011;60776;51.702;7.462;2023-05-27T10:51:07;3.55;;;2.53;;
59233;SDS011;60776;51.702;7.462;2023-05-27T10:53:34;4.10;;;3.13;;
59233;SDS011;60776;51.702;7.462;2023-05-27T10:56:01;4.15;;;2.83;;
59233;SDS011;60776;51.702;7.462;2023-05-27T10:58:27;4.18;;;2.97;;
59233;SDS011;60776;51.702;7.462;2023-05-27T11:00:53;3.60;;;2.90;;
59233;SDS011;60776;51.702;7.462;2023-05-27T11:03:26;4.03;;;2.83;;
59233;SDS011;60776;51.702;7.462;2023-05-27T11:08:34;3.45;;;2.80;;
59233;SDS011;60776;51.702;7.462;2023-05-27T11:11:06;3.10;;;2.80;;
59233;SDS011;60776;51.702;7.462;2023-05-27T11:13:41;3.10;;;2.80;;
59233;SDS011;60776;51.702;7.462;2023-05-27T11:16:09;3.25;;;2.60;;
59233;SDS011;60776;51.702;7.462;2023-05-27T11:18:46;3.25;;;2.53;;
59233;SDS011;60776;51.702;7.462;2023-05-27T11:21:13;2.78;;;2.55;;
59233;SDS011;60776;51.702;7.462;2023-05-27T11:23:47;4.50;;;2.83;;
59233;SDS011;60776;51.702;7.462;2023-05-27T11:26:20;3.10;;;2.80;;
59233;SDS011;60776;51.702;7.462;2023-05-27T11:28:49;3.05;;;2.70;;
59233;SDS011;60776;51.702;7.462;2023-05-27T11:31:20;2.58;;;2.38;;
59233;SDS011;60776;51.702;7.462;2023-05-27T11:33:51;3.25;;;2.80;;
59233;SDS011;60776;51.702;7.462;2023-05-27T11:36:17;2.85;;;2.60;;
59233;SDS011;60776;51.702;7.462;2023-05-27T11:38:59;3.28;;;2.67;;
59233;SDS011;60776;51.702;7.462;2023-05-27T11:41:27;3.40;;;2.70;;
59233;SDS011;60776;51.702;7.462;2023-05-27T11:44:00;3.75;;;2.78;;
59233;SDS011;60776;51.702;7.462;2023-05-27T11:46:43;2.95;;;2.47;;
59233;SDS011;60776;51.702;7.462;2023-05-27T11:49:10;2.58;;;2.38;;
59233;SDS011;60776;51.702;7.462;2023-05-27T11:51:41;2.88;;;2.53;;
59233;SDS011;60776;51.702;7.462;2023-05-27T11:54:17;4.85;;;2.80;;
59233;SDS011;60776;51.702;7.462;2023-05-27T11:56:54;3.53;;;2.55;;
59233;SDS011;60776;51.702;7.462;2023-05-27T11:59:21;3.05;;;2.60;;
59233;SDS011;60776;51.702;7.462;2023-05-27T12:01:49;3.67;;;2.80;;
59233;SDS011;60776;51.702;7.462;2023-05-27T12:04:15;3.30;;;2.90;;
59233;SDS011;60776;51.702;7.462;2023-05-27T12:06:41;2.55;;;2.17;;
59233;SDS011;60776;51.702;7.462;2023-05-27T12:09:08;2.60;;;2.40;;
59233;SDS011;60776;51.702;7.462;2023-05-27T12:11:34;2.92;;;2.47;;
59233;SDS011;60776;51.702;7.462;2023-05-27T12:14:00;2.47;;;2.28;;
59233;SDS011;60776;51.702;7.462;2023-05-27T12:16:26;2.60;;;2.40;;
59233;SDS011;60776;51.702;7.462;2023-05-27T12:18:52;3.50;;;3.20;;
59233;SDS011;60776;51.702;7.462;2023-05-27T12:21:21;3.15;;;2.40;;
59233;SDS011;60776;51.702;7.462;2023-05-27T12:23:47;3.25;;;2.50;;
59233;SDS011;60776;51.702;7.462;2023-05-27T12:26:14;2.78;;;2.40;;
59233;SDS011;60776;51.702;7.462;2023-05-27T12:28:40;3.35;;;2.67;;
59233;SDS011;60776;51.702;7.462;2023-05-27T12:31:06;2.85;;;2.25;;
59233;SDS011;60776;51.702;7.462;2023-05-27T12:33:32;2.78;;;2.35;;
59233;SDS011;60776;51.702;7.462;2023-05-27T12:35:58;3.45;;;2.63;;
59233;SDS011;60776;51.702;7.462;2023-05-27T12:38:25;2.72;;;2.50;;
59233;SDS011;60776;51.702;7.462;2023-05-27T12:40:51;2.45;;;2.25;;
59233;SDS011;60776;51.702;7.462;2023-05-27T12:43:19;2.83;;;2.20;;
59233;SDS011;60776;51.702;7.462;2023-05-27T12:45:48;2.35;;;2.10;;
59233;SDS011;60776;51.702;7.462;2023-05-27T12:48:17;4.43;;;2.67;;
59233;SDS011;60776;51.702;7.462;2023-05-27T12:50:49;2.72;;;2.38;;
59233;SDS011;60776;51.702;7.462;2023-05-27T12:53:15;2.80;;;2.42;;
59233;SDS011;60776;51.702;7.462;2023-05-27T12:55:41;2.67;;;2.28;;
59233;SDS011;60776;51.702;7.462;2023-05-27T12:58:09;3.30;;;2.30;;
59233;SDS011;60776;51.702;7.462;2023-05-27T13:00:37;2.20;;;1.95;;
59233;SDS011;60776;51.702;7.462;2023-05-27T13:03:12;2.35;;;1.95;;
59233;SDS011;60776;51.702;7.462;2023-05-27T13:05:41;2.30;;;2.10;;
59233;SDS011;60776;51.702;7.462;2023-05-27T13:08:09;2.92;;;2.42;;
59233;SDS011;60776;51.702;7.462;2023-05-27T13:10:46;3.15;;;2.50;;
59233;SDS011;60776;51.702;7.462;2023-05-27T13:13:15;3.08;;;2.10;;
59233;SDS011;60776;51.702;7.462;2023-05-27T13:15:43;3.67;;;2.40;;
59233;SDS011;60776;51.702;7.462;2023-05-27T13:18:20;2.38;;;2.17;;
59233;SDS011;60776;51.702;7.462;2023-05-27T13:20:49;2.85;;;2.20;;
59233;SDS011;60776;51.702;7.462;2023-05-27T13:23:24;3.40;;;2.25;;
59233;SDS011;60776;51.702;7.462;2023-05-27T13:25:50;3.00;;;2.30;;
59233;SDS011;60776;51.702;7.462;2023-05-27T13:28:27;3.15;;;2.20;;
59233;SDS011;60776;51.702;7.462;2023-05-27T13:30:55;2.80;;;2.17;;
59233;SDS011;60776;51.702;7.462;2023-05-27T13:33:30;3.20;;;2.05;;
59233;SDS011;60776;51.702;7.462;2023-05-27T13:35:56;2.65;;;2.22;;
59233;SDS011;60776;51.702;7.462;2023-05-27T13:38:21;2.33;;;2.13;;
59233;SDS011;60776;51.702;7.462;2023-05-27T13:40:47;2.72;;;2.42;;
59233;SDS011;60776;51.702;7.462;2023-05-27T13:43:16;2.72;;;2.28;;
59233;SDS011;60776;51.702;7.462;2023-05-27T13:45:51;2.72;;;2.40;;
59233;SDS011;60776;51.702;7.462;2023-05-27T13:48:20;3.10;;;2.35;;
59233;SDS011;60776;51.702;7.462;2023-05-27T18:16:12;1.92;;;1.73;;
59233;SDS011;60776;51.702;7.462;2023-05-27T18:18:38;2.55;;;2.15;;
59233;SDS011;60776;51.702;7.462;2023-05-27T18:21:04;2.63;;;2.10;;
59233;SDS011;60776;51.702;7.462;2023-05-27T18:23:31;2.72;;;2.05;;
59233;SDS011;60776;51.702;7.462;2023-05-27T18:25:57;3.03;;;2.15;;
59233;SDS011;60776;51.702;7.462;2023-05-27T18:51:46;2.50;;;2.10;;
59233;SDS011;60776;51.702;7.462;2023-05-27T18:54:12;2.55;;;1.90;;
59233;SDS011;60776;51.702;7.462;2023-05-27T18:56:38;3.03;;;2.25;;
59233;SDS011;60776;51.702;7.462;2023-05-27T18:59:03;1.80;;;1.52;;
59233;SDS011;60776;51.702;7.462;2023-05-27T19:01:30;3.08;;;2.10;;
59233;SDS011;60776;51.702;7.462;2023-05-27T19:03:55;3.60;;;2.40;;
59233;SDS011;60776;51.702;7.462;2023-05-27T19:06:21;2.42;;;2.10;;
59233;SDS011;60776;51.702;7.462;2023-05-27T19:08:47;2.78;;;2.10;;
59233;SDS011;60776;51.702;7.462;2023-05-27T19:11:13;2.40;;;2.00;;
59233;SDS011;60776;51.702;7.462;2023-05-27T19:13:39;2.60;;;1.92;;
59233;SDS011;60776;51.702;7.462;2023-05-27T19:16:04;2.63;;;2.00;;
59233;SDS011;60776;51.702;7.462;2023-05-27T19:18:30;1.88;;;1.75;;
59233;SDS011;60776;51.702;7.462;2023-05-27T19:20:56;2.15;;;1.90;;
59233;SDS011;60776;51.702;7.462;2023-05-27T19:23:22;3.28;;;2.10;;
59233;SDS011;60776;51.702;7.462;2023-05-27T19:28:38;2.13;;;1.77;;
59233;SDS011;60776;51.702;7.462;2023-05-27T19:31:06;2.67;;;2.15;;
59233;SDS011;60776;51.702;7.462;2023-05-27T19:33:33;2.88;;;2.45;;
59233;SDS011;60776;51.702;7.462;2023-05-27T19:35:59;2.40;;;2.20;;
59233;SDS011;60776;51.702;7.462;2023-05-27T19:38:30;2.28;;;2.08;;
59233;SDS011;60776;51.702;7.462;2023-05-27T19:40:56;2.55;;;2.35;;
59233;SDS011;60776;51.702;7.462;2023-05-27T19:43:23;2.38;;;2.08;;
59233;SDS011;60776;51.702;7.462;2023-05-27T19:45:49;2.05;;;1.70;;
59233;SDS011;60776;51.702;7.462;2023-05-27T19:48:15;2.92;;;1.60;;
59233;SDS011;60776;51.702;7.462;2023-05-27T19:50:40;1.95;;;1.83;;